createdAt,value
2022-10-11T00:03:09.520Z,16.25
2022-10-11T00:06:50.337Z,16.25
2022-10-11T00:10:30.249Z,16.25
2022-10-11T00:14:10.150Z,16.25
2022-10-11T00:17:50.614Z,16.25
2022-10-11T00:21:34.269Z,16.25
2022-10-11T00:25:14.254Z,16.25
2022-10-11T00:28:55.650Z,16.25
2022-10-11T00:32:36.656Z,16.25
2022-10-11T00:36:16.466Z,16.187
2022-10-11T00:39:57.568Z,16.187
2022-10-11T00:43:37.705Z,16.187
2022-10-11T00:47:22.363Z,16.187
2022-10-11T00:51:02.648Z,16.25
2022-10-11T00:54:43.474Z,16.25
2022-10-11T00:58:23.198Z,16.312
2022-10-11T01:03:07.021Z,16.25
2022-10-11T01:07:16.956Z,16.25
2022-10-11T01:10:56.663Z,16.25
2022-10-11T01:14:36.556Z,16.25
2022-10-11T01:18:16.395Z,16.25
2022-10-11T01:21:56.094Z,16.25
2022-10-11T01:25:42.823Z,16.25
2022-10-11T01:29:23.624Z,16.312
2022-10-11T01:33:03.649Z,16.312
2022-10-11T01:36:44.664Z,16.25
2022-10-11T01:40:24.678Z,16.25
2022-10-11T01:44:04.568Z,16.312
2022-10-11T01:47:45.028Z,16.312
2022-10-11T01:51:24.887Z,16.25
2022-10-11T01:55:41.179Z,16.25
2022-10-11T01:59:21.246Z,16.25
2022-10-11T02:03:07.865Z,16.25
2022-10-11T02:06:48.084Z,16.25
2022-10-11T02:10:31.653Z,16.25
2022-10-11T02:14:11.665Z,16.25
2022-10-11T02:17:52.043Z,16.187
2022-10-11T02:21:31.876Z,16.187
2022-10-11T02:25:11.838Z,16.187
2022-10-11T02:28:52.958Z,16.187
2022-10-11T02:32:32.922Z,16.187
2022-10-11T02:36:13.359Z,16.187
2022-10-11T02:39:53.411Z,16.187
2022-10-11T02:43:33.115Z,16.187
2022-10-11T02:47:13.190Z,16.125
2022-10-11T02:50:53.250Z,16.125
2022-10-11T02:54:33.207Z,16.125
2022-10-11T02:58:12.926Z,16.125
2022-10-11T03:03:07.184Z,16.125
2022-10-11T03:06:47.498Z,16.125
2022-10-11T03:10:27.436Z,16.125
2022-10-11T03:14:07.585Z,16.125
2022-10-11T03:18:23.378Z,16.125
2022-10-11T03:22:07.772Z,16.125
2022-10-11T03:25:53.261Z,16.125
2022-10-11T03:29:34.419Z,16.125
2022-10-11T03:33:14.385Z,16.125
2022-10-11T03:36:54.859Z,16.125
2022-10-11T03:40:39.061Z,16.125
2022-10-11T03:44:19.118Z,16.125
2022-10-11T03:48:00.200Z,16.062
2022-10-11T03:51:40.044Z,16.062
2022-10-11T03:55:20.852Z,16.062
2022-10-11T03:59:03.710Z,16.0
2022-10-11T04:03:11.011Z,16.0
2022-10-11T04:08:41.603Z,16.0
2022-10-11T04:12:21.729Z,16.0
2022-10-11T04:16:02.400Z,16.0
2022-10-11T04:19:48.360Z,15.937
2022-10-11T04:23:28.278Z,15.937
2022-10-11T04:27:08.424Z,15.937
2022-10-11T04:30:55.841Z,15.875
2022-10-11T04:34:35.654Z,15.875
2022-10-11T04:38:19.215Z,15.875
2022-10-11T04:41:59.151Z,15.875
2022-10-11T04:45:39.207Z,15.812
2022-10-11T04:49:32.077Z,15.812
2022-10-11T04:53:14.835Z,15.812
2022-10-11T04:56:55.564Z,15.812
2022-10-11T05:03:06.824Z,15.75
2022-10-11T05:06:54.606Z,15.75
2022-10-11T05:10:35.200Z,15.75
2022-10-11T05:14:15.561Z,15.75
2022-10-11T05:18:02.491Z,15.75
2022-10-11T05:21:42.679Z,15.687
2022-10-11T05:25:23.463Z,15.687
2022-10-11T05:29:04.952Z,15.687
2022-10-11T05:32:48.824Z,15.687
2022-10-11T05:36:30.267Z,15.687
2022-10-11T05:40:10.274Z,15.687
2022-10-11T05:43:55.531Z,15.687
2022-10-11T05:47:36.819Z,15.687
2022-10-11T05:51:16.962Z,15.625
2022-10-11T05:54:57.481Z,15.625
2022-10-11T05:58:38.791Z,15.625
2022-10-11T06:03:07.631Z,15.625
2022-10-11T06:06:48.817Z,15.625
2022-10-11T06:10:29.094Z,15.625
2022-10-11T06:14:09.158Z,15.625
2022-10-11T06:17:49.930Z,15.625
2022-10-11T06:21:29.867Z,15.625
2022-10-11T06:25:09.866Z,15.625
2022-10-11T06:28:51.415Z,15.625
2022-10-11T06:32:31.427Z,15.625
2022-10-11T06:36:11.618Z,15.625
2022-10-11T06:39:51.925Z,15.625
2022-10-11T06:43:31.966Z,15.625
2022-10-11T06:47:11.986Z,15.625
2022-10-11T06:51:32.009Z,15.625
2022-10-11T06:55:16.854Z,15.625
2022-10-11T06:58:58.954Z,15.625
2022-10-11T07:03:07.854Z,15.625
2022-10-11T07:06:52.347Z,15.625
2022-10-11T07:10:32.524Z,15.625
2022-10-11T07:14:12.589Z,15.625
2022-10-11T07:17:54.279Z,15.625
2022-10-11T07:21:40.238Z,15.625
2022-10-11T07:25:20.279Z,15.625
2022-10-11T07:29:09.596Z,15.625
2022-10-11T07:32:49.697Z,15.625
2022-10-11T07:36:37.204Z,15.625
2022-10-11T07:40:17.882Z,15.625
2022-10-11T07:43:57.956Z,15.625
2022-10-11T07:47:43.349Z,15.625
2022-10-11T07:51:24.097Z,15.625
2022-10-11T07:55:04.159Z,15.625
2022-10-11T07:58:46.053Z,15.625
2022-10-11T08:03:07.642Z,15.625
2022-10-11T08:06:52.510Z,15.625
2022-10-11T08:10:33.394Z,15.687
2022-10-11T08:14:13.838Z,15.687
2022-10-11T08:17:54.724Z,15.687
2022-10-11T08:21:35.139Z,15.687
2022-10-11T08:25:21.229Z,15.687
2022-10-11T08:29:03.212Z,15.75
2022-10-11T08:32:43.481Z,15.687
2022-10-11T08:36:24.503Z,15.687
2022-10-11T08:40:05.114Z,15.75
2022-10-11T08:43:45.337Z,15.75
2022-10-11T08:48:01.756Z,15.75
2022-10-11T08:51:42.297Z,15.75
2022-10-11T08:55:28.278Z,15.812
2022-10-11T08:59:08.574Z,15.812
2022-10-11T09:03:41.895Z,15.875
2022-10-11T09:07:25.819Z,15.875
2022-10-11T09:11:06.379Z,15.937
2022-10-11T09:14:46.628Z,16.0
2022-10-11T09:18:26.952Z,16.062
2022-10-11T09:22:07.250Z,16.062
2022-10-11T09:25:47.374Z,16.062
2022-10-11T09:29:54.137Z,16.125
2022-10-11T09:33:34.560Z,16.187
2022-10-11T09:37:15.159Z,16.25
2022-10-11T09:40:58.280Z,16.25
2022-10-11T09:44:38.575Z,16.312
2022-10-11T09:48:26.499Z,16.375
2022-10-11T09:52:07.403Z,16.437
2022-10-11T09:55:51.589Z,16.5
2022-10-11T09:59:31.892Z,16.5
2022-10-11T10:03:07.285Z,16.562
2022-10-11T10:06:47.994Z,16.625
2022-10-11T10:10:31.474Z,16.625
2022-10-11T10:14:11.366Z,16.625
2022-10-11T10:17:51.975Z,16.687
2022-10-11T10:21:36.590Z,16.687
2022-10-11T10:25:16.882Z,16.75
2022-10-11T10:28:58.652Z,16.812
2022-10-11T10:33:09.334Z,16.812
2022-10-11T10:36:50.779Z,16.75
2022-10-11T10:40:37.778Z,16.812
2022-10-11T10:44:17.713Z,16.937
2022-10-11T10:48:09.839Z,17.0
2022-10-11T10:52:50.399Z,17.125
2022-10-11T10:56:31.288Z,17.187
2022-10-11T11:03:28.996Z,17.25
2022-10-11T11:07:14.144Z,17.312
2022-10-11T11:10:54.515Z,17.375
2022-10-11T11:14:35.052Z,17.375
2022-10-11T11:18:26.817Z,17.437
2022-10-11T11:22:13.239Z,17.375
2022-10-11T11:26:04.817Z,17.375
2022-10-11T11:29:45.678Z,17.375
2022-10-11T11:33:34.422Z,17.437
2022-10-11T11:37:18.298Z,17.5
2022-10-11T11:41:07.271Z,17.5
2022-10-11T11:44:53.686Z,17.5
2022-10-11T11:48:33.664Z,17.562
2022-10-11T11:52:20.043Z,17.562
2022-10-11T11:55:59.956Z,17.5
2022-10-11T11:59:46.277Z,17.437
2022-10-11T12:03:12.015Z,17.5
2022-10-11T12:07:11.448Z,17.625
2022-10-11T12:10:55.467Z,17.812
2022-10-11T12:14:36.326Z,17.875
2022-10-11T12:18:16.393Z,17.937
2022-10-11T12:21:57.418Z,18.0
2022-10-11T12:25:44.528Z,18.0
2022-10-11T12:29:28.709Z,18.062
2022-10-11T12:33:15.157Z,18.187
2022-10-11T12:36:58.238Z,18.25
2022-10-11T12:40:41.314Z,18.375
2022-10-11T12:44:21.502Z,18.375
2022-10-11T12:48:02.103Z,18.437
2022-10-11T12:51:46.289Z,18.5
2022-10-11T12:56:06.635Z,18.437
2022-10-11T12:59:52.733Z,18.375
2022-10-11T13:03:06.600Z,18.25
2022-10-11T13:06:51.113Z,18.062
2022-10-11T13:10:37.864Z,17.937
2022-10-11T13:14:18.304Z,17.812
2022-10-11T13:18:04.748Z,17.75
2022-10-11T13:21:50.253Z,17.687
2022-10-11T13:25:30.529Z,17.687
2022-10-11T13:29:14.129Z,17.625
2022-10-11T13:32:55.086Z,17.687
2022-10-11T13:36:37.192Z,17.812
2022-10-11T13:40:20.253Z,18.062
2022-10-11T13:44:00.401Z,18.187
2022-10-11T13:47:40.787Z,18.125
2022-10-11T13:51:26.245Z,18.0
2022-10-11T13:55:06.178Z,17.937
2022-10-11T13:58:50.859Z,17.812
2022-10-11T14:03:08.209Z,17.812
2022-10-11T14:06:55.688Z,17.875
2022-10-11T14:10:35.965Z,17.812
2022-10-11T14:14:16.289Z,17.75
2022-10-11T14:17:57.370Z,17.687
2022-10-11T14:21:47.208Z,17.687
2022-10-11T14:25:27.241Z,17.625
2022-10-11T14:29:13.723Z,17.625
2022-10-11T14:33:23.730Z,17.625
2022-10-11T14:37:03.869Z,17.562
2022-10-11T14:40:43.900Z,17.5
2022-10-11T14:44:24.094Z,17.5
2022-10-11T14:48:09.245Z,17.437
2022-10-11T14:52:23.134Z,17.437
2022-10-11T14:56:07.501Z,17.375
2022-10-11T14:59:53.640Z,17.312
2022-10-11T15:03:06.768Z,17.25
2022-10-11T15:06:47.749Z,17.25
2022-10-11T15:10:28.276Z,17.25
2022-10-11T15:14:09.065Z,17.187
2022-10-11T15:17:55.166Z,17.187
2022-10-11T15:21:35.207Z,17.187
2022-10-11T15:25:19.972Z,17.187
2022-10-11T15:29:01.884Z,17.125
2022-10-11T15:32:42.049Z,17.062
2022-10-11T15:36:22.525Z,17.125
2022-10-11T15:40:08.949Z,17.125
2022-10-11T15:43:55.533Z,17.125
2022-10-11T15:47:35.985Z,17.062
2022-10-11T15:51:15.850Z,17.062
2022-10-11T15:54:56.191Z,17.062
2022-10-11T15:58:36.824Z,17.062
2022-10-11T16:03:11.499Z,17.062
2022-10-11T16:08:43.201Z,17.0
2022-10-11T16:12:23.532Z,17.0
2022-10-11T16:16:10.751Z,17.0
2022-10-11T16:19:57.591Z,17.0
2022-10-11T16:23:37.973Z,17.0
2022-10-11T16:27:19.084Z,17.0
2022-10-11T16:30:59.919Z,17.0
2022-10-11T16:34:40.202Z,16.937
2022-10-11T16:38:27.000Z,16.937
2022-10-11T16:42:10.755Z,16.937
2022-10-11T16:45:56.330Z,16.937
2022-10-11T16:49:37.672Z,16.937
2022-10-11T16:53:22.779Z,16.875
2022-10-11T16:57:12.365Z,16.875
2022-10-11T17:03:14.413Z,16.875
2022-10-11T17:06:55.565Z,16.875
2022-10-11T17:10:35.695Z,16.812
2022-10-11T17:14:19.489Z,16.812
2022-10-11T17:18:00.405Z,16.812
2022-10-11T17:21:40.460Z,16.812
2022-10-11T17:25:20.845Z,16.812
2022-10-11T17:29:07.381Z,16.812
2022-10-11T17:32:48.263Z,16.812
2022-10-11T17:36:29.576Z,16.812
2022-10-11T17:40:09.558Z,16.75
2022-10-11T17:43:57.485Z,16.812
2022-10-11T17:47:38.581Z,16.75
2022-10-11T17:51:22.777Z,16.75
2022-10-11T17:55:02.894Z,16.75
2022-10-11T17:58:43.183Z,16.75
2022-10-11T18:03:07.075Z,16.687
2022-10-11T18:06:47.134Z,16.687
2022-10-11T18:10:32.213Z,16.687
2022-10-11T18:14:16.655Z,16.687
2022-10-11T18:17:57.888Z,16.687
2022-10-11T18:21:37.868Z,16.687
2022-10-11T18:25:17.962Z,16.625
2022-10-11T18:29:03.164Z,16.625
2022-10-11T18:32:49.025Z,16.625
2022-10-11T18:36:29.218Z,16.625
2022-10-11T18:40:09.240Z,16.625
2022-10-11T18:43:49.992Z,16.625
2022-10-11T18:47:30.251Z,16.625
2022-10-11T18:51:10.489Z,16.625
2022-10-11T18:54:57.524Z,16.625
2022-10-11T18:58:38.399Z,16.562
2022-10-11T19:03:35.398Z,16.562
2022-10-11T19:07:15.707Z,16.562
2022-10-11T19:10:55.673Z,16.562
2022-10-11T19:14:35.922Z,16.562
2022-10-11T19:18:22.514Z,16.562
2022-10-11T19:22:02.770Z,16.562
2022-10-11T19:25:43.104Z,16.562
2022-10-11T19:29:29.831Z,16.562
2022-10-11T19:33:10.230Z,16.562
2022-10-11T19:37:01.900Z,16.5
2022-10-11T19:40:42.149Z,16.5
2022-10-11T19:44:22.552Z,16.5
2022-10-11T19:48:45.301Z,16.5
2022-10-11T19:52:25.459Z,16.5
2022-10-11T19:56:18.122Z,16.5
2022-10-11T19:59:59.978Z,16.437
2022-10-11T20:03:15.175Z,16.437
2022-10-11T20:07:30.820Z,16.437
2022-10-11T20:11:22.624Z,16.437
2022-10-11T20:15:17.121Z,16.437
2022-10-11T20:18:57.815Z,16.437
2022-10-11T20:22:38.112Z,16.375
2022-10-11T20:26:22.464Z,16.375
2022-10-11T20:30:04.235Z,16.375
2022-10-11T20:33:44.574Z,16.375
2022-10-11T20:37:31.585Z,16.375
2022-10-11T20:41:11.890Z,16.375
2022-10-11T20:44:56.467Z,16.375
2022-10-11T20:48:43.280Z,16.375
2022-10-11T20:52:31.000Z,16.375
2022-10-11T20:56:11.251Z,16.375
2022-10-11T20:59:51.697Z,16.312
2022-10-11T21:03:08.470Z,16.312
2022-10-11T21:06:48.424Z,16.312
2022-10-11T21:10:29.254Z,16.312
2022-10-11T21:14:09.869Z,16.312
2022-10-11T21:17:50.165Z,16.312
2022-10-11T21:21:30.126Z,16.312
2022-10-11T21:25:10.706Z,16.25
2022-10-11T21:28:52.859Z,16.25
2022-10-11T21:32:37.540Z,16.25
2022-10-11T21:36:17.720Z,16.25
2022-10-11T21:39:58.041Z,16.25
2022-10-11T21:43:38.165Z,16.25
2022-10-11T21:47:59.667Z,16.25
2022-10-11T21:51:40.081Z,16.25
2022-10-11T21:55:21.099Z,16.187
2022-10-11T21:59:01.723Z,16.187
2022-10-11T22:03:09.202Z,16.187
2022-10-11T22:06:49.207Z,16.187
2022-10-11T22:10:29.337Z,16.187
2022-10-11T22:14:09.605Z,16.187
2022-10-11T22:17:49.595Z,16.187
2022-10-11T22:21:29.449Z,16.187
2022-10-11T22:25:14.921Z,16.187
2022-10-11T22:28:55.454Z,16.125
2022-10-11T22:32:35.834Z,16.125
2022-10-11T22:36:20.719Z,16.125
2022-10-11T22:40:01.175Z,16.125
2022-10-11T22:43:41.164Z,16.125
2022-10-11T22:47:21.145Z,16.125
2022-10-11T22:51:01.299Z,16.125
2022-10-11T22:54:41.157Z,16.125
2022-10-11T22:58:21.343Z,16.062
2022-10-11T23:03:06.082Z,16.062
2022-10-11T23:06:47.342Z,16.062
2022-10-11T23:10:33.817Z,16.062
2022-10-11T23:14:13.567Z,16.062
2022-10-11T23:17:53.596Z,16.062
2022-10-11T23:21:33.571Z,16.0
2022-10-11T23:25:14.328Z,16.0
2022-10-11T23:28:54.578Z,16.0
2022-10-11T23:32:34.542Z,16.0
2022-10-11T23:36:14.376Z,16.0
2022-10-11T23:39:54.402Z,16.0
2022-10-11T23:43:34.234Z,16.0
2022-10-11T23:47:14.231Z,15.937
2022-10-11T23:50:54.221Z,15.937
2022-10-11T23:54:34.139Z,15.937
2022-10-11T23:58:14.324Z,15.937
